Time;durP1;ratioP1;P1;durP2;ratioP2;P2;SDS_P1;SDS_P2;PMS_P1;PMS_P2;Temp;Humidity;BMP_temperature;BMP_pressure;BME280_temperature;BME280_humidity;BME280_pressure;Samples;Min_cycle;Max_cycle;Signal;HPM_P1;HPM_P2
2022/04/23 00:01:08;;;;;;;12.98;6.32;;;10.50;99.90;;;;;;5012963;28;20029;-70
2022/04/23 00:03:34;;;;;;;15.27;6.55;;;10.30;99.90;;;;;;5013014;28;20026;-71
2022/04/23 00:06:00;;;;;;;15.00;6.30;;;10.40;99.90;;;;;;5012701;28;20018;-71
2022/04/23 00:08:26;;;;;;;19.55;7.40;;;10.20;99.90;;;;;;5012950;28;20414;-71
2022/04/23 00:10:51;;;;;;;12.85;7.28;;;10.20;99.90;;;;;;5012759;28;20026;-72
2022/04/23 00:13:17;;;;;;;12.23;6.35;;;10.20;99.90;;;;;;5012719;28;20084;-71
2022/04/23 00:15:43;;;;;;;16.13;6.50;;;10.10;99.90;;;;;;5012524;28;20106;-72
2022/04/23 00:18:09;;;;;;;16.45;7.18;;;10.00;99.90;;;;;;5012893;28;20022;-71
2022/04/23 00:20:36;;;;;;;15.15;7.47;;;10.00;99.90;;;;;;5013323;28;20104;-71
2022/04/23 00:23:02;;;;;;;13.55;7.60;;;10.00;99.90;;;;;;5013310;28;20026;-73
2022/04/23 00:25:28;;;;;;;14.93;7.28;;;9.90;99.90;;;;;;5012595;28;20475;-72
2022/04/23 00:27:54;;;;;;;21.10;8.00;;;9.90;99.90;;;;;;5012435;28;20026;-71
2022/04/23 00:30:20;;;;;;;20.48;8.00;;;9.80;99.90;;;;;;5012610;28;20045;-72
2022/04/23 00:32:46;;;;;;;17.73;8.40;;;9.80;99.90;;;;;;5012645;28;20022;-72
2022/04/23 00:35:16;;;;;;;16.38;8.50;;;9.70;99.90;;;;;;5012669;28;20383;-73
2022/04/23 00:37:42;;;;;;;22.75;9.27;;;9.70;99.90;;;;;;5012455;28;20164;-72
2022/04/23 00:40:16;;;;;;;21.02;8.30;;;9.70;99.90;;;;;;5012256;28;20060;-73
2022/04/23 00:42:51;;;;;;;19.65;8.13;;;9.60;99.90;;;;;;5012416;28;20026;-71
2022/04/23 00:45:17;;;;;;;22.95;9.70;;;9.60;99.90;;;;;;5012889;28;20034;-73
2022/04/23 00:47:42;;;;;;;22.30;9.73;;;9.60;99.90;;;;;;5013031;28;20034;-71
2022/04/23 00:50:09;;;;;;;26.73;10.65;;;9.50;99.90;;;;;;5012156;28;20030;-73
2022/04/23 00:52:36;;;;;;;28.20;10.00;;;9.40;99.90;;;;;;5010642;28;20018;-71
2022/04/23 00:55:03;;;;;;;21.52;9.63;;;9.40;99.90;;;;;;5012257;28;20033;-72
2022/04/23 00:57:29;;;;;;;20.83;10.48;;;9.30;99.90;;;;;;5011984;28;20032;-71
2022/04/23 00:59:55;;;;;;;19.05;10.25;;;9.30;99.90;;;;;;5011951;28;20026;-71
2022/04/23 01:02:22;;;;;;;23.50;10.75;;;9.30;99.90;;;;;;5012510;28;20361;-71
2022/04/23 01:04:48;;;;;;;26.55;11.30;;;9.30;99.90;;;;;;5012129;28;20022;-70
2022/04/23 01:07:14;;;;;;;21.13;11.13;;;9.30;99.90;;;;;;5012171;28;20108;-71
2022/04/23 01:09:44;;;;;;;23.15;11.23;;;9.30;99.90;;;;;;5011684;28;20111;-71
2022/04/23 01:12:11;;;;;;;24.23;10.55;;;9.20;99.90;;;;;;5012021;28;20478;-70
2022/04/23 01:14:59;;;;;;;26.40;11.40;;;9.30;99.90;;;;;;5011846;28;20021;-71
2022/04/23 01:17:25;;;;;;;22.27;11.43;;;9.20;99.90;;;;;;5010375;28;20499;-71
2022/04/23 01:19:51;;;;;;;24.50;11.43;;;9.20;99.90;;;;;;5011883;28;20032;-72
2022/04/23 01:22:17;;;;;;;30.60;13.20;;;9.10;99.90;;;;;;5011672;28;20030;-71
2022/04/23 01:24:43;;;;;;;29.35;12.15;;;9.20;99.90;;;;;;5011690;28;20113;-72
2022/04/23 01:27:10;;;;;;;25.55;11.80;;;9.10;99.90;;;;;;5010692;28;20038;-72
2022/04/23 01:29:37;;;;;;;25.90;12.73;;;9.20;99.90;;;;;;5046309;22;20558;-76
2022/04/23 01:32:06;;;;;;;29.02;12.57;;;9.10;99.90;;;;;;5031747;28;20017;-76
2022/04/23 01:34:32;;;;;;;24.90;13.35;;;9.10;99.90;;;;;;5031915;28;20072;-76
2022/04/23 01:36:57;;;;;;;22.55;12.18;;;9.10;99.90;;;;;;5031856;28;20029;-76
2022/04/23 01:39:23;;;;;;;29.80;13.73;;;9.00;99.90;;;;;;5031898;28;20025;-76
2022/04/23 01:41:49;;;;;;;28.38;14.15;;;9.10;99.90;;;;;;5014050;28;20037;-76
2022/04/23 01:44:15;;;;;;;32.00;13.63;;;9.00;99.90;;;;;;5032436;28;20025;-76
2022/04/23 01:46:40;;;;;;;24.23;13.88;;;9.00;99.90;;;;;;5032481;28;20029;-76
2022/04/23 01:49:06;;;;;;;31.10;14.18;;;9.00;99.90;;;;;;5033026;28;20036;-75
2022/04/23 01:51:31;;;;;;;29.38;14.68;;;9.00;99.90;;;;;;5030804;28;20024;-76
2022/04/23 01:53:57;;;;;;;31.77;14.70;;;9.00;99.90;;;;;;5031395;28;20056;-75
2022/04/23 01:56:23;;;;;;;36.55;15.07;;;9.00;99.90;;;;;;5031281;28;20482;-76
2022/04/23 01:58:48;;;;;;;34.35;15.98;;;8.90;99.90;;;;;;5013678;28;20021;-75
2022/04/23 02:01:14;;;;;;;32.13;15.02;;;8.90;99.90;;;;;;5031523;28;20060;-76
2022/04/23 02:03:39;;;;;;;29.70;14.95;;;8.90;99.90;;;;;;5013769;28;20033;-75
2022/04/23 02:06:05;;;;;;;32.85;15.20;;;8.80;99.90;;;;;;5031221;28;20075;-76
2022/04/23 02:08:30;;;;;;;42.72;17.02;;;8.80;99.90;;;;;;5031426;28;20030;-76
2022/04/23 02:10:56;;;;;;;39.10;16.73;;;8.70;99.90;;;;;;5031130;28;20029;-76
2022/04/23 02:13:22;;;;;;;40.40;17.50;;;8.70;99.90;;;;;;5031279;28;20026;-77
2022/04/23 02:15:47;;;;;;;41.40;17.70;;;8.70;99.90;;;;;;5031826;28;20018;-77
2022/04/23 02:18:14;;;;;;;35.38;16.73;;;8.70;99.90;;;;;;5015943;28;20508;-76
2022/04/23 02:20:40;;;;;;;38.67;18.40;;;8.70;99.90;;;;;;5030515;28;20056;-77
2022/04/23 02:23:05;;;;;;;35.33;18.50;;;8.70;99.90;;;;;;5013578;28;20068;-77
2022/04/23 02:25:35;;;;;;;34.13;18.08;;;8.60;99.90;;;;;;5030613;28;20018;-77
2022/04/23 02:28:01;;;;;;;34.78;18.35;;;8.60;99.90;;;;;;5030756;28;20026;-76
2022/04/23 02:30:26;;;;;;;33.22;18.45;;;8.60;99.90;;;;;;5031045;28;20040;-75
2022/04/23 02:32:52;;;;;;;38.05;18.98;;;8.60;99.90;;;;;;5030814;28;20032;-75
2022/04/23 02:35:20;;;;;;;38.97;19.23;;;8.60;99.90;;;;;;5030480;28;20112;-75
2022/04/23 02:37:47;;;;;;;39.25;19.27;;;8.60;99.90;;;;;;5013793;28;20112;-76
2022/04/23 02:40:14;;;;;;;40.75;19.90;;;8.50;99.90;;;;;;5035184;28;20155;-77
2022/04/23 02:42:39;;;;;;;36.25;19.38;;;8.50;99.90;;;;;;5035053;28;20286;-76
2022/04/23 02:45:07;;;;;;;40.40;19.67;;;8.50;99.90;;;;;;5035544;28;20040;-76
2022/04/23 02:47:53;;;;;;;40.75;20.08;;;8.50;99.90;;;;;;5035647;28;20486;-75
2022/04/23 02:50:26;;;;;;;39.67;20.35;;;8.50;99.90;;;;;;5034710;28;20037;-76
2022/04/23 02:52:55;;;;;;;43.20;20.13;;;8.50;99.90;;;;;;5036308;28;20522;-76
2022/04/23 02:55:21;;;;;;;32.83;19.73;;;8.50;99.90;;;;;;5037314;28;20037;-76
2022/04/23 02:57:46;;;;;;;46.40;21.40;;;8.50;99.90;;;;;;5038493;28;20039;-75
2022/04/23 03:00:12;;;;;;;37.90;21.05;;;8.50;99.90;;;;;;5037400;28;20509;-75
2022/04/23 03:02:39;;;;;;;40.25;20.60;;;8.50;99.90;;;;;;5018339;28;20025;-77
2022/04/23 03:05:07;;;;;;;44.78;22.52;;;8.50;99.90;;;;;;5035042;28;20029;-77
2022/04/23 03:07:34;;;;;;;50.03;23.73;;;8.40;99.90;;;;;;5017002;28;20026;-76
2022/04/23 03:10:00;;;;;;;40.25;22.90;;;8.40;99.90;;;;;;5034345;28;20382;-76
2022/04/23 03:12:26;;;;;;;42.78;24.05;;;8.40;99.90;;;;;;5034713;28;20029;-76
2022/04/23 03:14:51;;;;;;;45.45;23.02;;;8.40;99.90;;;;;;5034842;28;20029;-76
2022/04/23 03:17:17;;;;;;;48.22;24.35;;;8.30;99.90;;;;;;5035086;28;20070;-76
2022/04/23 03:19:43;;;;;;;52.80;25.85;;;8.30;99.90;;;;;;5034332;28;20025;-76
2022/04/23 03:22:08;;;;;;;43.08;24.00;;;8.20;99.90;;;;;;5034396;28;20033;-76
2022/04/23 03:24:34;;;;;;;49.63;26.45;;;8.20;99.90;;;;;;5034455;28;20033;-76
2022/04/23 03:26:59;;;;;;;44.72;25.35;;;8.20;99.90;;;;;;5016443;28;20029;-77
2022/04/23 03:29:25;;;;;;;48.03;25.45;;;8.20;99.90;;;;;;5033818;28;20125;-75
2022/04/23 03:31:51;;;;;;;50.25;25.75;;;8.20;99.90;;;;;;5034455;28;20018;-77
2022/04/23 03:34:18;;;;;;;45.13;25.52;;;8.20;99.90;;;;;;5034552;28;20124;-76
2022/04/23 03:36:44;;;;;;;47.25;25.42;;;8.20;99.90;;;;;;5016830;28;20053;-76
2022/04/23 03:39:09;;;;;;;52.47;26.20;;;8.10;99.90;;;;;;5034501;28;20087;-75
2022/04/23 03:41:35;;;;;;;52.42;27.30;;;8.10;99.90;;;;;;5035443;28;20390;-76
2022/04/23 03:44:00;;;;;;;47.75;26.00;;;8.10;99.90;;;;;;5034565;28;20033;-77
2022/04/23 03:46:26;;;;;;;48.13;27.88;;;8.10;99.90;;;;;;5034839;28;20029;-75
2022/04/23 03:48:52;;;;;;;47.85;27.15;;;8.10;99.90;;;;;;5034116;28;20382;-76
2022/04/23 03:51:17;;;;;;;48.13;27.63;;;8.10;99.90;;;;;;5034894;28;20155;-76
2022/04/23 03:53:43;;;;;;;52.03;26.63;;;8.10;99.90;;;;;;5018096;28;20371;-76
2022/04/23 03:56:09;;;;;;;56.65;28.42;;;8.10;99.90;;;;;;5037230;28;20026;-76
2022/04/23 03:58:35;;;;;;;46.10;26.45;;;8.00;99.90;;;;;;5019902;28;20021;-75
2022/04/23 04:01:01;;;;;;;56.25;28.17;;;8.00;99.90;;;;;;5040390;28;20029;-77
2022/04/23 04:03:27;;;;;;;50.03;26.70;;;8.00;99.90;;;;;;5023002;28;20508;-76
2022/04/23 04:05:53;;;;;;;50.20;29.42;;;8.00;99.90;;;;;;5039689;28;20052;-77
2022/04/23 04:08:19;;;;;;;60.70;29.77;;;8.00;99.90;;;;;;5035349;28;20021;-76
2022/04/23 04:10:44;;;;;;;53.28;28.17;;;7.90;99.90;;;;;;5038306;28;20028;-75
2022/04/23 04:13:10;;;;;;;59.38;30.38;;;7.90;99.90;;;;;;5036723;28;20026;-76
2022/04/23 04:15:36;;;;;;;54.85;28.55;;;7.90;99.90;;;;;;5044046;28;20022;-76
2022/04/23 04:18:02;;;;;;;52.78;29.90;;;7.90;99.90;;;;;;5046761;28;20026;-75
2022/04/23 04:20:32;;;;;;;54.58;30.65;;;7.90;99.90;;;;;;5043054;28;20116;-76
2022/04/23 04:22:57;;;;;;;50.72;28.52;;;7.90;99.90;;;;;;5037650;28;20281;-76
2022/04/23 04:25:23;;;;;;;51.63;29.75;;;7.90;99.90;;;;;;5050296;28;20029;-76
2022/04/23 04:27:49;;;;;;;52.53;30.15;;;7.80;99.90;;;;;;5039891;28;20080;-76
2022/04/23 04:30:15;;;;;;;55.35;30.67;;;7.80;99.90;;;;;;5036089;28;20064;-77
2022/04/23 04:32:41;;;;;;;54.72;30.85;;;7.80;99.90;;;;;;5034312;28;20498;-76
2022/04/23 04:35:07;;;;;;;58.40;30.23;;;7.80;99.90;;;;;;5034393;28;20401;-77
2022/04/23 04:37:33;;;;;;;56.10;29.73;;;7.80;99.90;;;;;;5033723;28;20103;-77
2022/04/23 04:39:59;;;;;;;58.83;31.25;;;7.90;99.90;;;;;;5015952;28;20057;-77
2022/04/23 04:42:24;;;;;;;49.75;29.20;;;7.90;99.90;;;;;;5033973;28;20486;-76
2022/04/23 04:44:50;;;;;;;55.17;30.77;;;7.90;99.90;;;;;;5034549;28;20030;-75
2022/04/23 04:47:16;;;;;;;55.88;30.48;;;7.90;99.90;;;;;;5033871;28;20034;-77
2022/04/23 04:49:42;;;;;;;52.20;30.85;;;7.90;99.90;;;;;;5035382;28;20052;-75
2022/04/23 04:52:08;;;;;;;58.58;29.65;;;8.00;99.90;;;;;;5035219;28;20025;-76
2022/04/23 04:54:34;;;;;;;52.53;29.38;;;8.00;99.90;;;;;;5033930;28;20033;-76
2022/04/23 04:57:02;;;;;;;54.80;30.33;;;8.00;99.90;;;;;;5015977;28;20029;-76
2022/04/23 04:59:28;;;;;;;59.92;31.42;;;8.10;99.90;;;;;;5035403;28;20025;-77
2022/04/23 05:01:54;;;;;;;55.17;31.52;;;8.10;99.90;;;;;;5019112;28;20033;-77
2022/04/23 05:04:20;;;;;;;53.95;31.17;;;8.10;99.90;;;;;;5038251;28;20410;-77
2022/04/23 05:06:46;;;;;;;57.88;32.45;;;8.10;99.90;;;;;;5036402;28;20025;-76
2022/04/23 05:09:12;;;;;;;61.80;32.60;;;8.20;99.90;;;;;;5019031;28;20025;-76
2022/04/23 05:11:37;;;;;;;61.70;32.42;;;8.10;99.90;;;;;;5017934;28;20029;-76
2022/04/23 05:14:03;;;;;;;59.20;31.95;;;8.10;99.90;;;;;;5036604;28;20026;-75
2022/04/23 05:16:29;;;;;;;55.78;31.05;;;;;;;;;;5019269;28;20075;-77
2022/04/23 05:18:55;;;;;;;57.97;32.25;;;;;;;;;;5038167;28;20497;-75
2022/04/23 05:21:21;;;;;;;54.90;30.00;;;;;;;;;;5039505;28;20021;-77
2022/04/23 05:23:47;;;;;;;55.75;29.30;;;;;;;;;;5044224;28;20021;-76
2022/04/23 05:26:13;;;;;;;58.60;30.20;;;;;;;;;;5043299;28;20026;-77
2022/04/23 05:28:41;;;;;;;58.50;29.67;;;;;;;;;;5021484;28;20057;-76
2022/04/23 05:31:07;;;;;;;50.50;28.83;;;;;;;;;;5034047;28;20025;-76
2022/04/23 05:33:33;;;;;;;53.53;28.90;;;;;;;;;;5033418;28;20079;-75
2022/04/23 05:35:59;;;;;;;48.95;27.42;;;;;;;;;;5033366;28;20022;-76
2022/04/23 05:38:25;;;;;;;49.40;27.17;;;;;;;;;;5034054;28;20048;-77
2022/04/23 05:40:51;;;;;;;55.50;29.05;;;;;;;;;;5016041;28;20117;-78
2022/04/23 05:43:17;;;;;;;47.40;27.77;;;;;;;;;;5037042;28;20489;-77
2022/04/23 05:45:43;;;;;;;45.00;26.65;;;;;;;;;;5015919;28;20088;-77
2022/04/23 05:48:10;;;;;;;50.47;26.27;;;;;;;;;;5033834;28;20041;-77
2022/04/23 05:50:36;;;;;;;42.20;26.83;;;;;;;;;;5035319;28;20064;-76
2022/04/23 05:53:02;;;;;;;44.05;25.42;;;;;;;;;;5035378;28;20371;-76
2022/04/23 05:55:28;;;;;;;46.15;26.67;;;;;;;;;;5018398;28;20032;-76
2022/04/23 05:57:54;;;;;;;45.78;26.77;;;;;;;;;;5037410;28;20430;-78
2022/04/23 06:00:21;;;;;;;47.13;26.88;;;;;;;;;;5037136;28;20025;-77
2022/04/23 06:02:47;;;;;;;40.58;24.52;;;;;;;;;;5038423;28;20076;-77
2022/04/23 06:05:13;;;;;;;45.83;26.65;;;;;;;;;;5040435;28;20113;-75
2022/04/23 06:07:39;;;;;;;43.65;25.60;;;;;;;;;;5046416;28;20032;-78
2022/04/23 06:10:06;;;;;;;42.08;24.70;;;;;;;;;;5040999;28;20030;-77
2022/04/23 06:12:34;;;;;;;43.25;24.90;;;;;;;;;;5025515;28;20017;-77
2022/04/23 06:14:59;;;;;;;40.40;22.90;;;;;;;;;;5049296;28;20063;-77
2022/04/23 06:17:27;;;;;;;45.53;25.00;;;;;;;;;;5054782;28;20026;-78
2022/04/23 06:19:53;;;;;;;49.38;24.15;;;;;;;;;;5033826;28;20025;-76
2022/04/23 06:22:20;;;;;;;38.75;21.75;;;;;;;;;;5046672;28;20390;-77
2022/04/23 06:24:46;;;;;;;37.65;22.45;;;;;;;;;;5042719;28;20423;-78
2022/04/23 06:27:12;;;;;;;36.75;21.98;;;;;;;;;;5043609;28;20033;-78
2022/04/23 06:29:39;;;;;;;38.63;22.35;;;;;;;;;;5042953;28;20274;-79
2022/04/23 06:32:05;;;;;;;38.05;21.85;;;;;;;;;;5027493;28;20028;-79
2022/04/23 06:34:31;;;;;;;36.35;21.67;;;;;;;;;;5028626;28;20026;-79
2022/04/23 06:36:57;;;;;;;38.05;22.08;;;;;;;;;;5045075;28;20309;-78
2022/04/23 06:39:23;;;;;;;33.80;19.95;;;;;;;;;;5027164;28;20037;-78
2022/04/23 06:41:48;;;;;;;44.33;20.30;;;;;;;;;;5042840;28;20033;-77
2022/04/23 06:44:15;;;;;;;33.88;18.92;;;;;;;;;;5045390;28;20029;-77
2022/04/23 06:46:41;;;;;;;29.02;18.38;;;;;;;;;;5043948;28;20394;-78
2022/04/23 06:49:06;;;;;;;30.48;17.27;;;;;;;;;;5024918;28;20029;-77
2022/04/23 06:51:33;;;;;;;33.38;17.60;;;;;;;;;;5044450;28;20052;-78
2022/04/23 06:53:59;;;;;;;32.38;17.70;;;;;;;;;;5042719;28;20112;-77
2022/04/23 06:56:26;;;;;;;27.45;16.92;;;;;;;;;;5043418;28;20065;-78
2022/04/23 06:58:52;;;;;;;33.67;16.30;;;;;;;;;;5039606;28;20021;-76
2022/04/23 07:01:18;;;;;;;25.35;15.63;;;;;;;;;;5042124;28;20052;-76
2022/04/23 07:03:44;;;;;;;24.33;14.40;;;;;;;;;;5028318;28;20470;-76
2022/04/23 07:06:11;;;;;;;22.30;13.93;;;;;;;;;;5040523;28;20110;-76
2022/04/23 07:08:40;;;;;;;22.92;13.65;;;;;;;;;;5042666;28;20013;-77
2022/04/23 07:11:06;;;;;;;28.60;14.13;;;;;;;;;;5047360;28;20026;-77
2022/04/23 07:13:33;;;;;;;21.08;14.38;;;;;;;;;;5029756;28;20438;-74
2022/04/23 07:15:59;;;;;;;19.90;13.00;;;;;;;;;;5044339;28;20081;-77
2022/04/23 07:18:25;;;;;;;18.13;11.75;;;;;;;;;;5045635;28;20379;-76
2022/04/23 07:20:51;;;;;;;23.30;11.95;;;;;;;;;;5042370;28;20076;-77
2022/04/23 07:26:02;;;;;;;24.23;11.63;;;;;;;;;;5052035;28;20052;-76
2022/04/23 07:28:28;;;;;;;20.23;10.98;;;;;;;;;;5054344;28;20037;-78
2022/04/23 07:30:54;;;;;;;17.92;10.38;;;;;;;;;;5028488;28;20029;-78
2022/04/23 07:38:51;;;;;;;18.48;9.93;;;;;;;;;;5039682;28;20037;-75
2022/04/23 07:41:18;;;;;;;16.80;9.55;;;;;;;;;;5036471;28;20045;-76
2022/04/23 07:43:44;;;;;;;17.30;9.45;;;;;;;;;;5035933;28;20018;-77
2022/04/23 07:46:10;;;;;;;19.77;9.60;;;;;;;;;;5036680;28;20104;-77
2022/04/23 07:48:36;;;;;;;16.15;8.35;;;;;;;;;;5019242;28;20367;-76
2022/04/23 07:51:02;;;;;;;15.38;9.27;;;;;;;;;;5038410;28;20397;-75
2022/04/23 07:53:28;;;;;;;14.00;7.47;;;;;;;;;;5038082;28;20163;-78
2022/04/23 07:55:54;;;;;;;10.23;6.38;;;;;;;;;;5038322;28;20045;-78
2022/04/23 07:58:21;;;;;;;10.23;6.75;;;;;;;;;;5035698;28;20032;-75
2022/04/23 08:00:46;;;;;;;9.50;6.18;;;;;;;;;;5038301;28;20034;-77
2022/04/23 08:03:12;;;;;;;11.90;6.63;;;;;;;;;;5023136;28;20075;-76
2022/04/23 08:05:38;;;;;;;12.48;6.20;;;;;;;;;;5017498;28;20029;-76
2022/04/23 08:08:05;;;;;;;7.97;5.53;;;;;;;;;;5018680;28;20028;-74
2022/04/23 08:10:31;;;;;;;8.35;5.57;;;;;;;;;;5019147;28;20052;-76
2022/04/23 08:12:57;;;;;;;9.98;5.25;;;;;;;;;;5039241;28;20029;-77
2022/04/23 08:15:25;;;;;;;12.10;5.80;;;;;;;;;;5054935;28;20036;-75
2022/04/23 08:17:51;;;;;;;10.80;6.18;;;11.80;99.90;;;;;;5036725;28;20097;-78
2022/04/23 08:20:16;;;;;;;7.22;4.97;;;14.50;99.90;;;;;;5041795;28;20064;-78
2022/04/23 08:22:42;;;;;;;33.08;13.80;;;14.50;99.90;;;;;;5042297;28;20061;-77
2022/04/23 08:25:08;;;;;;;9.30;4.95;;;14.80;99.90;;;;;;5024085;28;20026;-78
2022/04/23 08:30:50;;;;;;;8.48;4.90;;;15.00;99.90;;;;;;4996311;28;20474;-77
2022/04/23 08:33:16;;;;;;;8.20;5.05;;;15.10;99.90;;;;;;5039369;28;20030;-78
2022/04/23 08:35:41;;;;;;;10.90;7.53;;;15.10;99.90;;;;;;5020590;28;20037;-78
2022/04/23 08:38:08;;;;;;;17.70;7.80;;;15.10;99.90;;;;;;5021016;28;20045;-74
2022/04/23 08:40:39;;;;;;;8.25;5.35;;;15.30;99.90;;;;;;5016994;28;20136;-75
2022/04/23 08:43:06;;;;;;;17.40;5.28;;;15.50;99.90;;;;;;5034150;28;20029;-75
2022/04/23 08:45:35;;;;;;;9.68;4.65;;;15.50;99.90;;;;;;5035889;28;20087;-75
2022/04/23 08:48:04;;;;;;;6.22;4.25;;;15.60;99.90;;;;;;5034428;28;20022;-76
2022/04/23 08:50:31;;;;;;;11.10;4.28;;;15.60;99.90;;;;;;5034980;28;20482;-75
2022/04/23 08:52:59;;;;;;;9.10;4.80;;;15.80;99.90;;;;;;5034488;28;20029;-75
2022/04/23 08:55:26;;;;;;;7.18;4.47;;;15.80;99.90;;;;;;5035905;28;20021;-77
2022/04/23 08:57:54;;;;;;;5.65;4.13;;;15.80;99.90;;;;;;5036425;28;20025;-79
2022/04/23 09:00:20;;;;;;;7.07;4.75;;;15.90;99.90;;;;;;5036234;28;20399;-77
2022/04/23 09:02:46;;;;;;;9.43;4.95;;;16.00;99.90;;;;;;5043531;28;20084;-77
2022/04/23 09:05:13;;;;;;;8.27;4.95;;;16.00;99.90;;;;;;5022737;28;20120;-76
2022/04/23 09:07:39;;;;;;;6.63;4.40;;;16.10;99.90;;;;;;5041406;28;20033;-76
2022/04/23 09:10:06;;;;;;;7.20;4.53;;;16.00;99.90;;;;;;5039371;28;20053;-77
2022/04/23 09:12:32;;;;;;;7.88;4.40;;;16.20;99.90;;;;;;5025025;28;20076;-78
2022/04/23 09:23:41;;;;;;;6.13;4.63;;;16.20;99.90;;;;;;5039845;28;20048;-75
2022/04/23 09:26:20;;;;;;;5.95;4.40;;;16.30;99.90;;;;;;5041915;28;20096;-76
2022/04/23 09:28:48;;;;;;;10.13;3.88;;;16.40;99.90;;;;;;5043613;28;20491;-76
2022/04/23 09:31:15;;;;;;;6.03;4.68;;;16.40;99.90;;;;;;5041511;28;20051;-76
2022/04/23 09:33:49;;;;;;;7.68;4.80;;;16.50;99.90;;;;;;5046126;28;20052;-77
2022/04/23 09:36:15;;;;;;;8.63;4.38;;;16.60;99.60;;;;;;5038118;28;20044;-78
2022/04/23 09:38:41;;;;;;;9.30;4.45;;;16.50;99.60;;;;;;5036513;28;20018;-77
2022/04/23 09:41:15;;;;;;;7.13;4.30;;;16.50;99.60;;;;;;5022190;28;20148;-78
2022/04/23 09:44:01;;;;;;;6.65;4.07;;;16.60;98.50;;;;;;5039138;28;20026;-76
2022/04/23 09:46:27;;;;;;;7.13;4.72;;;16.60;98.50;;;;;;5041417;28;20447;-77
2022/04/23 09:49:03;;;;;;;5.38;4.15;;;16.60;97.90;;;;;;5021449;28;20116;-78
2022/04/23 09:51:29;;;;;;;7.13;4.03;;;16.60;97.90;;;;;;5033952;28;20033;-74
2022/04/23 09:53:55;;;;;;;6.10;4.30;;;16.60;98.00;;;;;;5035277;28;20036;-75
2022/04/23 09:56:22;;;;;;;7.75;5.03;;;16.70;97.70;;;;;;5017007;28;20022;-76
2022/04/23 09:58:47;;;;;;;6.18;4.75;;;16.80;97.50;;;;;;5032758;28;20029;-76
2022/04/23 10:01:14;;;;;;;7.07;5.30;;;16.80;97.20;;;;;;5033598;28;20033;-76
2022/04/23 10:03:45;;;;;;;9.02;4.43;;;16.90;97.00;;;;;;5039917;28;20032;-78
2022/04/23 10:06:12;;;;;;;6.93;4.40;;;16.90;97.20;;;;;;5039013;28;20482;-76
2022/04/23 10:08:43;;;;;;;9.60;4.70;;;17.60;97.60;;;;;;5040060;28;20056;-76
2022/04/23 10:11:35;;;;;;;7.85;4.75;;;17.30;97.10;;;;;;5035247;28;20029;-75
2022/04/23 10:14:04;;;;;;;6.13;4.90;;;17.60;97.10;;;;;;5039999;28;20040;-77
2022/04/23 10:16:32;;;;;;;7.78;4.70;;;17.80;97.20;;;;;;5037134;28;20507;-76
2022/04/23 10:18:58;;;;;;;7.00;4.40;;;17.90;98.80;;;;;;5036312;28;20064;-76
2022/04/23 10:21:34;;;;;;;6.40;4.43;;;17.90;99.10;;;;;;5028224;28;20036;-76
2022/04/23 10:24:05;;;;;;;6.47;4.32;;;;;;;;;;5046591;28;20026;-77
2022/04/23 10:26:53;;;;;;;5.85;4.45;;;;;;;;;;5040580;28;20033;-78
2022/04/23 10:29:21;;;;;;;7.40;4.15;;;17.70;99.90;;;;;;5038352;28;20026;-79
2022/04/23 10:32:08;;;;;;;6.50;4.47;;;17.60;97.20;;;;;;5021293;28;20032;-79
2022/04/23 10:34:34;;;;;;;6.50;4.10;;;17.60;98.80;;;;;;5038361;28;20056;-77
2022/04/23 10:37:17;;;;;;;6.50;4.28;;;;;;;;;;5038888;28;20030;-78
2022/04/23 10:40:03;;;;;;;5.40;4.20;;;17.50;98.70;;;;;;5033070;28;20026;-75
2022/04/23 10:42:32;;;;;;;4.90;4.22;;;;;;;;;;5015849;28;20069;-76
2022/04/23 10:45:03;;;;;;;5.85;4.45;;;17.80;99.90;;;;;;5033306;28;20068;-75
2022/04/23 10:47:34;;;;;;;5.07;4.13;;;18.10;98.90;;;;;;5033423;28;20483;-76
2022/04/23 10:50:13;;;;;;;6.88;4.55;;;18.10;99.80;;;;;;5034552;28;20033;-74
2022/04/23 10:52:39;;;;;;;5.75;4.82;;;17.70;99.70;;;;;;5036272;28;20569;-79
2022/04/23 10:55:06;;;;;;;10.90;5.15;;;18.20;99.90;;;;;;5019408;28;20095;-78
2022/04/23 10:57:31;;;;;;;6.53;4.88;;;18.10;98.00;;;;;;5036020;28;20489;-76
2022/04/23 11:00:12;;;;;;;9.82;5.72;;;18.00;98.70;;;;;;5036440;28;20048;-78
2022/04/23 11:02:39;;;;;;;5.10;4.50;;;17.90;99.40;;;;;;5020054;28;20486;-76
2022/04/23 11:13:50;;;;;;;11.98;5.18;;;18.20;97.70;;;;;;5036125;28;20092;-76
2022/04/23 11:16:18;;;;;;;9.00;4.60;;;18.30;98.20;;;;;;5036623;28;20470;-75
2022/04/23 11:18:45;;;;;;;10.75;4.90;;;;;;;;;;5037020;28;20427;-76
2022/04/23 11:21:15;;;;;;;6.47;4.38;;;;;;;;;;5044377;28;20394;-75
2022/04/23 11:23:45;;;;;;;7.95;5.78;;;18.60;73.40;;;;;;5044849;28;20124;-77
2022/04/23 11:26:14;;;;;;;7.90;4.28;;;18.80;73.30;;;;;;5026112;28;20048;-75
2022/04/23 11:28:41;;;;;;;5.80;4.15;;;18.80;72.50;;;;;;5042065;28;20029;-75
2022/04/23 11:31:09;;;;;;;5.53;4.43;;;18.90;72.30;;;;;;5027274;28;20479;-75
2022/04/23 11:33:34;;;;;;;9.23;4.68;;;19.00;71.10;;;;;;5019586;28;20112;-76
2022/04/23 11:36:00;;;;;;;9.27;5.00;;;18.90;72.40;;;;;;5040824;28;20037;-75
2022/04/23 11:38:27;;;;;;;7.35;5.55;;;19.00;72.20;;;;;;5039198;28;20726;-74
2022/04/23 11:40:52;;;;;;;5.20;4.25;;;19.10;71.80;;;;;;5041268;28;20024;-75
2022/04/23 11:43:31;;;;;;;8.55;4.30;;;19.30;71.80;;;;;;5037480;28;20038;-76
2022/04/23 11:46:02;;;;;;;7.57;4.47;;;19.30;70.10;;;;;;5039281;28;20400;-74
2022/04/23 11:48:28;;;;;;;5.80;4.35;;;19.30;71.10;;;;;;5039809;28;20029;-76
2022/04/23 11:51:05;;;;;;;11.50;5.32;;;19.40;70.40;;;;;;5020773;28;20072;-76
2022/04/23 11:53:52;;;;;;;14.23;6.65;;;19.50;70.50;;;;;;5037306;28;20022;-76
2022/04/23 11:56:29;;;;;;;8.10;4.55;;;19.50;70.00;;;;;;5034930;28;20127;-76
2022/04/23 11:58:57;;;;;;;6.38;4.90;;;19.60;69.70;;;;;;5036695;28;20013;-75
2022/04/23 12:01:24;;;;;;;9.13;4.38;;;19.70;68.80;;;;;;5018898;28;20511;-75
2022/04/23 12:03:52;;;;;;;6.38;4.32;;;19.70;69.40;;;;;;5036365;28;20552;-74
2022/04/23 12:06:18;;;;;;;7.97;4.70;;;19.80;68.90;;;;;;5038566;28;20391;-75
2022/04/23 12:08:43;;;;;;;7.50;4.28;;;19.70;67.40;;;;;;5046711;28;20029;-76
2022/04/23 12:11:28;;;;;;;8.73;4.40;;;19.80;67.00;;;;;;5034796;28;20033;-74
2022/04/23 12:13:54;;;;;;;15.18;6.80;;;19.90;66.80;;;;;;5035307;28;20452;-76
2022/04/23 12:16:36;;;;;;;15.05;8.95;;;20.10;72.60;;;;;;5035511;28;20041;-75
2022/04/23 12:19:17;;;;;;;19.10;8.50;;;20.00;74.60;;;;;;5035421;28;20081;-74
2022/04/23 12:21:57;;;;;;;18.70;8.55;;;19.70;76.30;;;;;;5036622;28;20084;-75
2022/04/23 12:24:35;;;;;;;14.40;8.68;;;19.40;77.40;;;;;;5034566;28;20360;-75
2022/04/23 12:27:05;;;;;;;10.60;7.40;;;19.80;76.80;;;;;;5034279;28;20057;-75
2022/04/23 12:40:45;;;;;;;11.93;8.73;;;21.50;72.50;;;;;;5040646;28;20060;-77
2022/04/23 12:43:20;;;;;;;17.88;8.85;;;22.20;71.00;;;;;;5040396;28;20482;-77
2022/04/23 12:45:47;;;;;;;17.88;10.40;;;22.30;70.10;;;;;;5036661;28;20117;-75
2022/04/23 12:48:14;;;;;;;15.35;10.98;;;22.70;70.60;;;;;;5039089;28;20026;-77
2022/04/23 12:50:40;;;;;;;14.75;8.93;;;23.20;67.90;;;;;;5035844;28;20037;-77
2022/04/23 12:53:05;;;;;;;13.30;9.30;;;23.60;67.30;;;;;;5036730;28;20028;-77
2022/04/23 12:55:37;;;;;;;15.65;9.32;;;24.10;65.70;;;;;;5034076;28;20026;-76
2022/04/23 12:58:02;;;;;;;13.40;7.78;;;24.40;63.90;;;;;;5034239;28;20064;-75
2022/04/23 13:00:33;;;;;;;10.15;7.75;;;24.50;62.60;;;;;;5035057;28;20025;-75
2022/04/23 13:03:57;;;;;;;11.65;8.18;;;25.10;61.90;;;;;;5017308;28;20112;-76
2022/04/23 13:08:54;;;;;;;13.63;8.30;;;25.30;60.30;;;;;;5032669;28;20092;-75
2022/04/23 13:08:55;;;;;;;15.07;7.80;;;25.20;59.00;;;;;;5045587;28;20402;-76
2022/04/23 13:11:24;;;;;;;13.70;7.82;;;25.10;59.60;;;;;;5038202;28;20033;-77
2022/04/23 13:13:50;;;;;;;13.55;8.00;;;25.10;58.60;;;;;;5037912;28;20363;-76
2022/04/23 13:16:16;;;;;;;11.63;7.25;;;25.40;57.80;;;;;;5023841;28;20028;-77
2022/04/23 13:18:41;;;;;;;14.88;7.93;;;25.90;57.30;;;;;;5044772;28;20025;-76
2022/04/23 13:21:07;;;;;;;14.75;7.95;;;25.90;56.30;;;;;;5042261;28;20048;-76
2022/04/23 13:23:33;;;;;;;13.65;7.50;;;25.90;55.90;;;;;;5042267;28;20025;-76
2022/04/23 13:25:59;;;;;;;13.25;7.82;;;25.40;56.90;;;;;;5038037;28;20025;-77
2022/04/23 13:28:25;;;;;;;12.50;8.15;;;25.50;57.00;;;;;;5037529;28;20040;-75
2022/04/23 13:30:51;;;;;;;12.68;8.10;;;25.70;55.60;;;;;;5036811;28;20033;-75
2022/04/23 13:33:17;;;;;;;13.35;8.25;;;25.90;55.40;;;;;;5035400;28;20030;-77
2022/04/23 13:35:43;;;;;;;13.13;7.97;;;26.20;54.10;;;;;;5033873;28;20091;-76
2022/04/23 13:38:12;;;;;;;11.68;7.65;;;26.60;53.50;;;;;;5034520;28;20040;-78
2022/04/23 13:40:38;;;;;;;14.18;8.70;;;26.90;52.70;;;;;;5015678;28;20025;-76
2022/04/23 13:43:03;;;;;;;14.00;7.32;;;27.10;51.50;;;;;;5036788;28;20387;-75
2022/04/23 13:45:31;;;;;;;11.75;7.90;;;26.80;51.90;;;;;;5034894;28;20486;-77